sensor_id;sensor_type;location;lat;lon;timestamp;pressure;altitude;pressure_sealevel;temperature;humidity
58471;BME280;44258;51.288;12.068;2024-01-25T00:01:49;101028.91;;;9.90;59.59
58471;BME280;44258;51.288;12.068;2024-01-25T00:04:16;101039.19;;;10.01;58.98
58471;BME280;44258;51.288;12.068;2024-01-25T00:06:43;101018.50;;;10.03;58.92
58471;BME280;44258;51.288;12.068;2024-01-25T00:09:09;101020.09;;;9.86;59.57
58471;BME280;44258;51.288;12.068;2024-01-25T00:11:36;101022.38;;;9.95;59.18
58471;BME280;44258;51.288;12.068;2024-01-25T00:14:03;101022.88;;;9.63;60.42
58471;BME280;44258;51.288;12.068;2024-01-25T00:16:35;101019.97;;;9.89;59.45
58471;BME280;44258;51.288;12.068;2024-01-25T00:19:03;101023.94;;;10.01;59.22
58471;BME280;44258;51.288;12.068;2024-01-25T00:21:32;101018.78;;;9.97;59.54
58471;BME280;44258;51.288;12.068;2024-01-25T00:23:59;101016.03;;;10.19;58.63
58471;BME280;44258;51.288;12.068;2024-01-25T00:26:24;101015.97;;;10.00;58.56
58471;BME280;44258;51.288;12.068;2024-01-25T00:28:51;101021.56;;;9.93;59.04
58471;BME280;44258;51.288;12.068;2024-01-25T00:31:19;101023.81;;;9.84;59.19
58471;BME280;44258;51.288;12.068;2024-01-25T00:33:48;101016.56;;;9.86;59.05
58471;BME280;44258;51.288;12.068;2024-01-25T00:36:18;101025.75;;;9.80;59.28
58471;BME280;44258;51.288;12.068;2024-01-25T00:38:48;101019.88;;;9.70;59.25
58471;BME280;44258;51.288;12.068;2024-01-25T00:41:17;101023.63;;;9.66;59.25
58471;BME280;44258;51.288;12.068;2024-01-25T00:43:46;101027.00;;;9.49;60.04
58471;BME280;44258;51.288;12.068;2024-01-25T00:46:13;101012.63;;;9.50;59.73
58471;BME280;44258;51.288;12.068;2024-01-25T00:48:40;101032.13;;;9.32;60.16
58471;BME280;44258;51.288;12.068;2024-01-25T00:51:14;101028.31;;;9.39;59.90
58471;BME280;44258;51.288;12.068;2024-01-25T00:53:49;101031.38;;;9.52;59.50
58471;BME280;44258;51.288;12.068;2024-01-25T00:56:18;101023.50;;;9.69;59.15
58471;BME280;44258;51.288;12.068;2024-01-25T00:58:45;101049.22;;;9.75;59.10
58471;BME280;44258;51.288;12.068;2024-01-25T01:01:13;101046.47;;;9.54;59.34
58471;BME280;44258;51.288;12.068;2024-01-25T01:03:40;101039.78;;;9.65;58.94
58471;BME280;44258;51.288;12.068;2024-01-25T01:06:12;101045.00;;;9.69;58.54
58471;BME280;44258;51.288;12.068;2024-01-25T01:08:39;101054.97;;;9.88;58.10
58471;BME280;44258;51.288;12.068;2024-01-25T01:11:06;101059.66;;;10.25;57.08
58471;BME280;44258;51.288;12.068;2024-01-25T01:13:32;101057.16;;;10.21;57.19
58471;BME280;44258;51.288;12.068;2024-01-25T01:15:59;101057.56;;;10.32;56.82
58471;BME280;44258;51.288;12.068;2024-01-25T01:18:25;101052.91;;;10.15;57.03
58471;BME280;44258;51.288;12.068;2024-01-25T01:20:52;101044.19;;;10.10;57.26
58471;BME280;44258;51.288;12.068;2024-01-25T01:23:21;101056.28;;;10.00;57.33
58471;BME280;44258;51.288;12.068;2024-01-25T01:25:48;101050.53;;;9.87;58.12
58471;BME280;44258;51.288;12.068;2024-01-25T01:28:15;101053.09;;;9.90;57.93
58471;BME280;44258;51.288;12.068;2024-01-25T01:30:42;101064.16;;;9.82;58.34
58471;BME280;44258;51.288;12.068;2024-01-25T01:33:13;101071.72;;;9.72;58.37
58471;BME280;44258;51.288;12.068;2024-01-25T01:35:39;101066.94;;;9.79;58.58
58471;BME280;44258;51.288;12.068;2024-01-25T01:38:08;101067.16;;;9.74;58.80
58471;BME280;44258;51.288;12.068;2024-01-25T01:40:36;101066.53;;;9.68;58.89
58471;BME280;44258;51.288;12.068;2024-01-25T01:43:03;101075.69;;;9.62;59.43
58471;BME280;44258;51.288;12.068;2024-01-25T01:45:30;101067.59;;;9.64;59.17
58471;BME280;44258;51.288;12.068;2024-01-25T01:47:57;101072.72;;;9.70;59.04
58471;BME280;44258;51.288;12.068;2024-01-25T01:50:24;101068.41;;;9.66;58.78
58471;BME280;44258;51.288;12.068;2024-01-25T01:52:51;101066.22;;;9.53;59.51
58471;BME280;44258;51.288;12.068;2024-01-25T01:55:18;101074.84;;;9.62;59.27
58471;BME280;44258;51.288;12.068;2024-01-25T01:57:47;101066.47;;;9.47;59.55
58471;BME280;44258;51.288;12.068;2024-01-25T02:00:17;101070.00;;;9.24;60.20
58471;BME280;44258;51.288;12.068;2024-01-25T02:02:45;101067.69;;;9.15;60.52
58471;BME280;44258;51.288;12.068;2024-01-25T02:05:20;101067.06;;;9.08;60.91
58471;BME280;44258;51.288;12.068;2024-01-25T02:07:47;101066.97;;;9.33;60.19
58471;BME280;44258;51.288;12.068;2024-01-25T02:10:14;101054.16;;;9.42;59.94
58471;BME280;44258;51.288;12.068;2024-01-25T02:12:42;101052.50;;;9.61;59.07
58471;BME280;44258;51.288;12.068;2024-01-25T02:15:10;101056.72;;;9.45;59.49
58471;BME280;44258;51.288;12.068;2024-01-25T02:17:39;101053.25;;;9.18;60.25
58471;BME280;44258;51.288;12.068;2024-01-25T02:20:08;101054.91;;;9.22;59.89
58471;BME280;44258;51.288;12.068;2024-01-25T02:22:37;101056.00;;;9.16;60.30
58471;BME280;44258;51.288;12.068;2024-01-25T02:25:04;101073.69;;;9.22;60.15
58471;BME280;44258;51.288;12.068;2024-01-25T02:27:31;101063.38;;;9.11;60.42
58471;BME280;44258;51.288;12.068;2024-01-25T02:30:05;101055.56;;;9.05;60.62
58471;BME280;44258;51.288;12.068;2024-01-25T02:32:32;101051.72;;;9.34;59.98
58471;BME280;44258;51.288;12.068;2024-01-25T02:34:59;101041.94;;;9.33;59.75
58471;BME280;44258;51.288;12.068;2024-01-25T02:37:26;101059.44;;;9.20;60.14
58471;BME280;44258;51.288;12.068;2024-01-25T02:39:54;101056.13;;;9.13;60.46
58471;BME280;44258;51.288;12.068;2024-01-25T02:42:21;101047.28;;;9.11;60.58
58471;BME280;44258;51.288;12.068;2024-01-25T02:44:49;101059.47;;;8.96;61.69
58471;BME280;44258;51.288;12.068;2024-01-25T02:47:17;101068.63;;;8.90;61.98
58471;BME280;44258;51.288;12.068;2024-01-25T02:49:44;101072.63;;;8.79;62.74
58471;BME280;44258;51.288;12.068;2024-01-25T02:52:10;101060.28;;;8.98;62.18
58471;BME280;44258;51.288;12.068;2024-01-25T02:54:37;101067.50;;;9.20;61.41
58471;BME280;44258;51.288;12.068;2024-01-25T02:57:06;101057.34;;;9.28;61.09
58471;BME280;44258;51.288;12.068;2024-01-25T02:59:33;101055.59;;;9.27;61.22
58471;BME280;44258;51.288;12.068;2024-01-25T03:01:59;101065.97;;;9.36;61.04
58471;BME280;44258;51.288;12.068;2024-01-25T03:04:26;101063.66;;;9.27;61.00
58471;BME280;44258;51.288;12.068;2024-01-25T03:06:54;101061.50;;;9.37;60.71
58471;BME280;44258;51.288;12.068;2024-01-25T03:09:21;101063.28;;;9.36;60.74
58471;BME280;44258;51.288;12.068;2024-01-25T03:11:49;101059.69;;;9.37;60.67
58471;BME280;44258;51.288;12.068;2024-01-25T03:14:20;101055.38;;;9.33;60.88
58471;BME280;44258;51.288;12.068;2024-01-25T03:16:47;101060.44;;;9.17;61.42
58471;BME280;44258;51.288;12.068;2024-01-25T03:19:17;101058.25;;;9.05;61.99
58471;BME280;44258;51.288;12.068;2024-01-25T03:21:44;101052.53;;;9.36;60.88
58471;BME280;44258;51.288;12.068;2024-01-25T03:24:11;101045.22;;;9.41;61.05
58471;BME280;44258;51.288;12.068;2024-01-25T03:26:39;101063.31;;;9.12;62.10
58471;BME280;44258;51.288;12.068;2024-01-25T03:29:06;101064.53;;;9.04;62.68
58471;BME280;44258;51.288;12.068;2024-01-25T03:31:34;101059.25;;;9.02;62.74
58471;BME280;44258;51.288;12.068;2024-01-25T03:34:01;101066.09;;;9.09;62.66
58471;BME280;44258;51.288;12.068;2024-01-25T03:36:28;101085.28;;;8.99;62.72
58471;BME280;44258;51.288;12.068;2024-01-25T03:38:54;101081.78;;;9.20;62.39
58471;BME280;44258;51.288;12.068;2024-01-25T03:41:21;101075.72;;;9.15;62.50
58471;BME280;44258;51.288;12.068;2024-01-25T03:43:48;101070.66;;;9.07;62.59
58471;BME280;44258;51.288;12.068;2024-01-25T03:46:18;101085.94;;;9.29;61.75
58471;BME280;44258;51.288;12.068;2024-01-25T03:48:46;101065.69;;;9.44;61.19
58471;BME280;44258;51.288;12.068;2024-01-25T03:51:11;101064.88;;;9.42;61.20
58471;BME280;44258;51.288;12.068;2024-01-25T03:53:40;101074.91;;;9.37;61.11
58471;BME280;44258;51.288;12.068;2024-01-25T03:56:11;101074.38;;;9.27;61.33
58471;BME280;44258;51.288;12.068;2024-01-25T03:58:38;101063.59;;;9.05;61.88
58471;BME280;44258;51.288;12.068;2024-01-25T04:01:04;101078.38;;;9.17;61.51
58471;BME280;44258;51.288;12.068;2024-01-25T04:03:31;101070.47;;;8.88;61.68
58471;BME280;44258;51.288;12.068;2024-01-25T04:05:59;101072.63;;;8.79;62.29
58471;BME280;44258;51.288;12.068;2024-01-25T04:08:25;101083.06;;;9.10;61.24
58471;BME280;44258;51.288;12.068;2024-01-25T04:10:55;101100.28;;;9.04;61.33
58471;BME280;44258;51.288;12.068;2024-01-25T04:13:21;101104.59;;;9.32;60.54
58471;BME280;44258;51.288;12.068;2024-01-25T04:15:48;101098.59;;;9.25;60.96
58471;BME280;44258;51.288;12.068;2024-01-25T04:18:15;101109.03;;;9.09;61.30
58471;BME280;44258;51.288;12.068;2024-01-25T04:20:43;101108.84;;;9.14;61.23
58471;BME280;44258;51.288;12.068;2024-01-25T04:23:11;101110.25;;;9.24;61.07
58471;BME280;44258;51.288;12.068;2024-01-25T04:25:38;101107.06;;;9.14;61.20
58471;BME280;44258;51.288;12.068;2024-01-25T04:28:05;101111.38;;;9.19;60.86
58471;BME280;44258;51.288;12.068;2024-01-25T04:30:32;101117.34;;;9.27;60.84
58471;BME280;44258;51.288;12.068;2024-01-25T04:32:59;101126.44;;;9.23;60.89
58471;BME280;44258;51.288;12.068;2024-01-25T04:35:26;101118.63;;;9.17;61.07
58471;BME280;44258;51.288;12.068;2024-01-25T04:37:52;101114.53;;;9.06;61.23
58471;BME280;44258;51.288;12.068;2024-01-25T04:40:24;101123.19;;;8.89;61.61
58471;BME280;44258;51.288;12.068;2024-01-25T04:42:51;101111.94;;;9.03;61.37
58471;BME280;44258;51.288;12.068;2024-01-25T04:45:20;101133.38;;;8.80;61.91
58471;BME280;44258;51.288;12.068;2024-01-25T04:47:46;101125.25;;;8.81;61.83
58471;BME280;44258;51.288;12.068;2024-01-25T04:50:13;101129.22;;;8.96;61.38
58471;BME280;44258;51.288;12.068;2024-01-25T04:52:40;101136.53;;;8.91;61.55
58471;BME280;44258;51.288;12.068;2024-01-25T04:55:08;101138.00;;;9.00;61.10
58471;BME280;44258;51.288;12.068;2024-01-25T04:57:36;101146.03;;;8.76;61.63
58471;BME280;44258;51.288;12.068;2024-01-25T05:00:04;101142.38;;;8.52;62.16
58471;BME280;44258;51.288;12.068;2024-01-25T05:02:31;101165.00;;;8.70;61.21
58471;BME280;44258;51.288;12.068;2024-01-25T05:04:57;101155.19;;;8.69;61.40
58471;BME280;44258;51.288;12.068;2024-01-25T05:07:24;101166.19;;;8.61;61.69
58471;BME280;44258;51.288;12.068;2024-01-25T05:09:53;101160.00;;;8.59;61.93
58471;BME280;44258;51.288;12.068;2024-01-25T05:12:19;101190.25;;;8.63;61.89
58471;BME280;44258;51.288;12.068;2024-01-25T05:14:48;101189.97;;;8.72;61.86
58471;BME280;44258;51.288;12.068;2024-01-25T05:17:16;101199.09;;;8.40;62.67
58471;BME280;44258;51.288;12.068;2024-01-25T05:19:43;101201.56;;;8.72;61.50
58471;BME280;44258;51.288;12.068;2024-01-25T05:22:10;101208.56;;;8.77;61.25
58471;BME280;44258;51.288;12.068;2024-01-25T05:24:37;101201.03;;;8.88;60.90
58471;BME280;44258;51.288;12.068;2024-01-25T05:27:04;101215.00;;;8.71;61.48
58471;BME280;44258;51.288;12.068;2024-01-25T05:29:34;101225.09;;;8.89;60.78
58471;BME280;44258;51.288;12.068;2024-01-25T05:32:04;101219.84;;;9.11;60.13
58471;BME280;44258;51.288;12.068;2024-01-25T05:34:31;101218.84;;;9.14;60.02
58471;BME280;44258;51.288;12.068;2024-01-25T05:36:58;101226.69;;;9.20;59.89
58471;BME280;44258;51.288;12.068;2024-01-25T05:39:28;101226.47;;;9.26;59.50
58471;BME280;44258;51.288;12.068;2024-01-25T05:41:55;101228.47;;;9.21;59.56
58471;BME280;44258;51.288;12.068;2024-01-25T05:44:21;101233.66;;;9.26;59.30
58471;BME280;44258;51.288;12.068;2024-01-25T05:46:48;101235.06;;;9.36;58.86
58471;BME280;44258;51.288;12.068;2024-01-25T05:49:17;101245.09;;;9.31;59.23
58471;BME280;44258;51.288;12.068;2024-01-25T05:51:45;101250.34;;;9.34;59.20
58471;BME280;44258;51.288;12.068;2024-01-25T05:54:14;101257.53;;;9.08;59.42
58471;BME280;44258;51.288;12.068;2024-01-25T05:56:42;101253.44;;;9.23;59.48
58471;BME280;44258;51.288;12.068;2024-01-25T05:59:09;101245.91;;;9.08;59.92
58471;BME280;44258;51.288;12.068;2024-01-25T06:01:36;101254.56;;;9.16;59.83
58471;BME280;44258;51.288;12.068;2024-01-25T06:04:03;101257.09;;;9.21;59.25
58471;BME280;44258;51.288;12.068;2024-01-25T06:06:31;101261.53;;;8.97;59.87
58471;BME280;44258;51.288;12.068;2024-01-25T06:09:00;101259.66;;;9.24;59.40
58471;BME280;44258;51.288;12.068;2024-01-25T06:11:26;101249.94;;;9.21;59.46
58471;BME280;44258;51.288;12.068;2024-01-25T06:13:53;101261.47;;;8.98;60.14
58471;BME280;44258;51.288;12.068;2024-01-25T06:16:19;101268.97;;;9.13;59.40
58471;BME280;44258;51.288;12.068;2024-01-25T06:18:48;101267.34;;;9.34;58.97
58471;BME280;44258;51.288;12.068;2024-01-25T06:21:15;101273.84;;;9.27;59.21
58471;BME280;44258;51.288;12.068;2024-01-25T06:23:43;101269.03;;;9.39;58.98
58471;BME280;44258;51.288;12.068;2024-01-25T06:26:09;101282.97;;;9.48;58.59
58471;BME280;44258;51.288;12.068;2024-01-25T06:28:36;101278.41;;;9.50;58.81
58471;BME280;44258;51.288;12.068;2024-01-25T06:31:05;101276.31;;;9.08;59.60
58471;BME280;44258;51.288;12.068;2024-01-25T06:33:32;101284.59;;;9.27;59.31
58471;BME280;44258;51.288;12.068;2024-01-25T06:35:59;101283.16;;;9.44;58.60
58471;BME280;44258;51.288;12.068;2024-01-25T06:38:26;101292.06;;;9.44;58.77
58471;BME280;44258;51.288;12.068;2024-01-25T06:40:55;101292.69;;;9.26;59.41
58471;BME280;44258;51.288;12.068;2024-01-25T06:43:21;101302.81;;;9.44;59.01
58471;BME280;44258;51.288;12.068;2024-01-25T06:45:50;101295.06;;;9.60;58.64
58471;BME280;44258;51.288;12.068;2024-01-25T06:48:17;101302.56;;;9.76;58.13
58471;BME280;44258;51.288;12.068;2024-01-25T06:50:44;101304.06;;;9.59;58.46
58471;BME280;44258;51.288;12.068;2024-01-25T06:53:11;101301.16;;;9.40;58.90
58471;BME280;44258;51.288;12.068;2024-01-25T06:55:37;101313.41;;;9.49;59.07
58471;BME280;44258;51.288;12.068;2024-01-25T06:58:06;101317.44;;;9.61;58.66
58471;BME280;44258;51.288;12.068;2024-01-25T07:00:32;101330.78;;;9.39;59.20
58471;BME280;44258;51.288;12.068;2024-01-25T07:03:02;101331.09;;;9.28;59.67
58471;BME280;44258;51.288;12.068;2024-01-25T07:05:29;101337.69;;;9.18;59.97
58471;BME280;44258;51.288;12.068;2024-01-25T07:07:58;101342.09;;;9.20;60.02
58471;BME280;44258;51.288;12.068;2024-01-25T07:10:25;101343.91;;;9.46;59.33
58471;BME280;44258;51.288;12.068;2024-01-25T07:12:51;101343.53;;;9.57;59.02
58471;BME280;44258;51.288;12.068;2024-01-25T07:15:20;101350.09;;;9.48;59.05
58471;BME280;44258;51.288;12.068;2024-01-25T07:17:50;101345.13;;;9.36;59.39
58471;BME280;44258;51.288;12.068;2024-01-25T07:20:16;101346.78;;;9.13;60.26
58471;BME280;44258;51.288;12.068;2024-01-25T07:22:43;101355.38;;;9.25;59.71
58471;BME280;44258;51.288;12.068;2024-01-25T07:25:12;101354.22;;;9.32;59.68
58471;BME280;44258;51.288;12.068;2024-01-25T07:27:38;101359.47;;;9.35;59.72
58471;BME280;44258;51.288;12.068;2024-01-25T07:30:09;101357.31;;;9.46;59.48
58471;BME280;44258;51.288;12.068;2024-01-25T07:32:37;101358.78;;;9.28;59.94
58471;BME280;44258;51.288;12.068;2024-01-25T07:35:04;101350.59;;;9.33;59.58
58471;BME280;44258;51.288;12.068;2024-01-25T07:37:31;101359.84;;;9.24;60.10
58471;BME280;44258;51.288;12.068;2024-01-25T07:39:58;101369.69;;;9.50;59.03
58471;BME280;44258;51.288;12.068;2024-01-25T07:42:24;101368.13;;;9.70;58.62
58471;BME280;44258;51.288;12.068;2024-01-25T07:44:51;101381.00;;;9.60;58.85
58471;BME280;44258;51.288;12.068;2024-01-25T07:47:18;101384.78;;;9.54;58.86
58471;BME280;44258;51.288;12.068;2024-01-25T07:49:47;101391.09;;;9.53;58.85
58471;BME280;44258;51.288;12.068;2024-01-25T07:52:14;101403.44;;;9.59;58.88
58471;BME280;44258;51.288;12.068;2024-01-25T07:54:43;101412.16;;;9.66;58.63
58471;BME280;44258;51.288;12.068;2024-01-25T07:57:10;101406.59;;;9.70;58.44
58471;BME280;44258;51.288;12.068;2024-01-25T07:59:37;101395.50;;;9.54;58.89
58471;BME280;44258;51.288;12.068;2024-01-25T08:02:03;101394.44;;;9.60;58.72
58471;BME280;44258;51.288;12.068;2024-01-25T08:04:30;101388.16;;;9.61;58.52
58471;BME280;44258;51.288;12.068;2024-01-25T08:06:58;101395.09;;;9.67;58.36
58471;BME280;44258;51.288;12.068;2024-01-25T08:09:24;101393.03;;;9.48;58.84
58471;BME280;44258;51.288;12.068;2024-01-25T08:11:51;101393.44;;;9.63;58.72
58471;BME280;44258;51.288;12.068;2024-01-25T08:14:18;101400.59;;;9.64;58.49
58471;BME280;44258;51.288;12.068;2024-01-25T08:16:44;101385.59;;;9.57;58.84
58471;BME280;44258;51.288;12.068;2024-01-25T08:19:11;101385.97;;;9.46;59.26
58471;BME280;44258;51.288;12.068;2024-01-25T08:21:38;101387.69;;;9.48;59.19
58471;BME280;44258;51.288;12.068;2024-01-25T08:24:06;101393.50;;;9.34;59.63
58471;BME280;44258;51.288;12.068;2024-01-25T08:26:33;101389.69;;;9.42;59.41
58471;BME280;44258;51.288;12.068;2024-01-25T08:29:00;101402.13;;;9.44;59.26
58471;BME280;44258;51.288;12.068;2024-01-25T08:31:27;101398.97;;;9.31;59.69
58471;BME280;44258;51.288;12.068;2024-01-25T08:33:54;101395.50;;;9.28;59.66
58471;BME280;44258;51.288;12.068;2024-01-25T08:36:21;101405.16;;;9.33;59.40
58471;BME280;44258;51.288;12.068;2024-01-25T08:38:54;101400.91;;;9.26;59.85
58471;BME280;44258;51.288;12.068;2024-01-25T08:41:23;101402.09;;;9.18;60.11
58471;BME280;44258;51.288;12.068;2024-01-25T08:43:50;101401.44;;;9.64;59.08
58471;BME280;44258;51.288;12.068;2024-01-25T08:46:17;101409.34;;;9.94;58.29
58471;BME280;44258;51.288;12.068;2024-01-25T08:48:44;101402.38;;;9.88;58.57
58471;BME280;44258;51.288;12.068;2024-01-25T08:51:11;101399.03;;;10.07;57.87
58471;BME280;44258;51.288;12.068;2024-01-25T08:53:37;101402.72;;;10.04;57.78
58471;BME280;44258;51.288;12.068;2024-01-25T08:56:05;101407.22;;;10.04;57.90
58471;BME280;44258;51.288;12.068;2024-01-25T08:58:33;101412.88;;;9.96;58.19
58471;BME280;44258;51.288;12.068;2024-01-25T09:00:59;101423.75;;;9.66;58.29
58471;BME280;44258;51.288;12.068;2024-01-25T09:03:26;101422.09;;;9.87;58.73
58471;BME280;44258;51.288;12.068;2024-01-25T09:05:53;101430.72;;;10.22;58.02
58471;BME280;44258;51.288;12.068;2024-01-25T09:08:19;101432.22;;;10.29;57.67
58471;BME280;44258;51.288;12.068;2024-01-25T09:10:46;101431.78;;;10.18;57.58
58471;BME280;44258;51.288;12.068;2024-01-25T09:13:14;101441.13;;;10.31;57.05
58471;BME280;44258;51.288;12.068;2024-01-25T09:15:44;101439.06;;;9.89;57.98
58471;BME280;44258;51.288;12.068;2024-01-25T09:18:12;101441.44;;;9.73;58.73
58471;BME280;44258;51.288;12.068;2024-01-25T09:20:40;101434.22;;;9.99;57.79
58471;BME280;44258;51.288;12.068;2024-01-25T09:23:13;101440.88;;;10.14;57.63
58471;BME280;44258;51.288;12.068;2024-01-25T09:25:40;101439.84;;;10.18;57.42
58471;BME280;44258;51.288;12.068;2024-01-25T09:28:08;101436.59;;;10.32;57.08
58471;BME280;44258;51.288;12.068;2024-01-25T09:30:37;101432.97;;;10.09;57.37
58471;BME280;44258;51.288;12.068;2024-01-25T09:33:05;101435.66;;;10.34;57.10
58471;BME280;44258;51.288;12.068;2024-01-25T09:35:31;101446.31;;;10.12;57.24
58471;BME280;44258;51.288;12.068;2024-01-25T09:37:58;101446.13;;;10.17;57.30
58471;BME280;44258;51.288;12.068;2024-01-25T09:40:25;101441.59;;;10.43;56.83
58471;BME280;44258;51.288;12.068;2024-01-25T09:42:52;101450.72;;;10.13;57.32
58471;BME280;44258;51.288;12.068;2024-01-25T09:45:20;101453.97;;;10.23;57.49
58471;BME280;44258;51.288;12.068;2024-01-25T09:47:49;101453.16;;;10.21;57.25
58471;BME280;44258;51.288;12.068;2024-01-25T09:50:17;101471.09;;;10.21;57.13
58471;BME280;44258;51.288;12.068;2024-01-25T09:52:52;101471.41;;;10.11;57.43
58471;BME280;44258;51.288;12.068;2024-01-25T09:55:24;101475.66;;;10.19;57.53
58471;BME280;44258;51.288;12.068;2024-01-25T09:57:53;101463.31;;;10.13;57.29
58471;BME280;44258;51.288;12.068;2024-01-25T10:00:21;101483.09;;;10.35;56.27
58471;BME280;44258;51.288;12.068;2024-01-25T10:02:48;101479.53;;;10.35;56.73
58471;BME280;44258;51.288;12.068;2024-01-25T10:05:16;101482.16;;;10.37;56.62
58471;BME280;44258;51.288;12.068;2024-01-25T10:07:44;101478.66;;;10.34;57.18
58471;BME280;44258;51.288;12.068;2024-01-25T10:10:12;101480.72;;;10.51;56.65
58471;BME280;44258;51.288;12.068;2024-01-25T10:12:40;101480.81;;;10.25;57.26
58471;BME280;44258;51.288;12.068;2024-01-25T10:15:08;101477.94;;;10.29;56.75
58471;BME280;44258;51.288;12.068;2024-01-25T10:17:35;101486.66;;;10.36;57.32
58471;BME280;44258;51.288;12.068;2024-01-25T10:20:04;101483.91;;;10.38;57.33
58471;BME280;44258;51.288;12.068;2024-01-25T10:22:38;101490.94;;;10.42;57.16
58471;BME280;44258;51.288;12.068;2024-01-25T10:25:12;101484.97;;;10.08;57.36
58471;BME280;44258;51.288;12.068;2024-01-25T10:27:40;101477.88;;;10.31;57.52
58471;BME280;44258;51.288;12.068;2024-01-25T10:30:09;101488.50;;;10.10;57.87
58471;BME280;44258;51.288;12.068;2024-01-25T10:32:37;101490.00;;;10.18;57.71
58471;BME280;44258;51.288;12.068;2024-01-25T10:35:04;101504.88;;;10.53;56.98
58471;BME280;44258;51.288;12.068;2024-01-25T10:37:33;101506.47;;;10.82;56.31
58471;BME280;44258;51.288;12.068;2024-01-25T10:40:01;101515.25;;;10.87;56.38
58471;BME280;44258;51.288;12.068;2024-01-25T10:42:28;101522.19;;;10.93;56.20
58471;BME280;44258;51.288;12.068;2024-01-25T10:44:55;101520.75;;;10.84;55.73
58471;BME280;44258;51.288;12.068;2024-01-25T10:47:23;101520.13;;;10.76;55.88
58471;BME280;44258;51.288;12.068;2024-01-25T10:49:50;101519.66;;;10.90;56.05
58471;BME280;44258;51.288;12.068;2024-01-25T10:52:21;101514.91;;;10.97;55.55
58471;BME280;44258;51.288;12.068;2024-01-25T10:54:50;101513.88;;;10.99;55.72
58471;BME280;44258;51.288;12.068;2024-01-25T10:57:20;101506.63;;;10.78;55.55
58471;BME280;44258;51.288;12.068;2024-01-25T10:59:47;101501.31;;;10.76;55.84
58471;BME280;44258;51.288;12.068;2024-01-25T11:02:14;101501.88;;;10.86;55.89
58471;BME280;44258;51.288;12.068;2024-01-25T11:04:53;101487.03;;;10.74;55.89
58471;BME280;44258;51.288;12.068;2024-01-25T11:07:23;101481.78;;;10.94;55.52
58471;BME280;44258;51.288;12.068;2024-01-25T11:09:51;101467.75;;;10.86;55.17
58471;BME280;44258;51.288;12.068;2024-01-25T11:12:23;101470.81;;;10.52;55.52
58471;BME280;44258;51.288;12.068;2024-01-25T11:14:54;101463.03;;;10.44;55.61
58471;BME280;44258;51.288;12.068;2024-01-25T11:17:22;101458.56;;;10.45;55.60
58471;BME280;44258;51.288;12.068;2024-01-25T11:19:48;101450.06;;;10.32;55.66
58471;BME280;44258;51.288;12.068;2024-01-25T11:22:16;101460.94;;;10.52;55.54
58471;BME280;44258;51.288;12.068;2024-01-25T11:24:43;101462.53;;;10.09;56.56
58471;BME280;44258;51.288;12.068;2024-01-25T11:27:11;101476.25;;;10.02;56.25
58471;BME280;44258;51.288;12.068;2024-01-25T11:29:41;101470.38;;;9.90;56.80
58471;BME280;44258;51.288;12.068;2024-01-25T11:32:11;101467.69;;;9.90;56.70
58471;BME280;44258;51.288;12.068;2024-01-25T11:34:42;101481.84;;;10.21;55.64
58471;BME280;44258;51.288;12.068;2024-01-25T11:37:09;101492.88;;;10.13;55.58
58471;BME280;44258;51.288;12.068;2024-01-25T11:39:36;101471.19;;;9.92;55.98
58471;BME280;44258;51.288;12.068;2024-01-25T11:42:06;101476.41;;;10.22;55.67
58471;BME280;44258;51.288;12.068;2024-01-25T11:44:35;101479.78;;;10.04;55.89
58471;BME280;44258;51.288;12.068;2024-01-25T11:47:04;101464.91;;;10.19;55.45
58471;BME280;44258;51.288;12.068;2024-01-25T11:49:31;101472.69;;;10.26;55.83
58471;BME280;44258;51.288;12.068;2024-01-25T11:52:00;101476.25;;;10.02;56.13
58471;BME280;44258;51.288;12.068;2024-01-25T11:54:33;101456.16;;;9.87;56.45
58471;BME280;44258;51.288;12.068;2024-01-25T11:57:03;101460.53;;;9.89;56.31
58471;BME280;44258;51.288;12.068;2024-01-25T11:59:30;101466.91;;;9.87;56.46
58471;BME280;44258;51.288;12.068;2024-01-25T12:01:57;101454.69;;;9.78;56.30
58471;BME280;44258;51.288;12.068;2024-01-25T12:04:28;101473.59;;;9.75;56.55
58471;BME280;44258;51.288;12.068;2024-01-25T12:06:55;101461.59;;;9.85;56.35
58471;BME280;44258;51.288;12.068;2024-01-25T12:09:22;101468.91;;;9.82;56.18
58471;BME280;44258;51.288;12.068;2024-01-25T12:11:49;101474.06;;;9.88;56.46
58471;BME280;44258;51.288;12.068;2024-01-25T12:14:17;101472.19;;;10.15;56.01
58471;BME280;44258;51.288;12.068;2024-01-25T12:16:48;101473.41;;;10.06;55.86
58471;BME280;44258;51.288;12.068;2024-01-25T12:19:15;101475.28;;;10.04;55.63
58471;BME280;44258;51.288;12.068;2024-01-25T12:21:46;101471.28;;;9.89;56.34
58471;BME280;44258;51.288;12.068;2024-01-25T12:24:13;101480.38;;;9.60;56.97
58471;BME280;44258;51.288;12.068;2024-01-25T12:26:41;101480.25;;;9.90;56.27
58471;BME280;44258;51.288;12.068;2024-01-25T12:29:09;101480.09;;;9.68;56.62
58471;BME280;44258;51.288;12.068;2024-01-25T12:31:36;101476.25;;;10.02;55.59
58471;BME280;44258;51.288;12.068;2024-01-25T12:34:02;101481.78;;;9.97;55.78
58471;BME280;44258;51.288;12.068;2024-01-25T12:36:30;101489.47;;;10.08;55.84
58471;BME280;44258;51.288;12.068;2024-01-25T12:39:00;101487.75;;;10.05;56.08
58471;BME280;44258;51.288;12.068;2024-01-25T12:41:28;101487.06;;;10.00;56.16
58471;BME280;44258;51.288;12.068;2024-01-25T12:43:54;101486.88;;;10.05;56.05
58471;BME280;44258;51.288;12.068;2024-01-25T12:46:21;101495.97;;;10.26;55.17
58471;BME280;44258;51.288;12.068;2024-01-25T12:48:48;101491.66;;;10.22;55.83
58471;BME280;44258;51.288;12.068;2024-01-25T12:51:15;101487.81;;;10.29;55.19